sensor_id;sensor_type;location;lat;lon;timestamp;temperature;humidity
7970;DHT22;4030;52.362;9.206;2023-09-08T00:02:06;24.00;57.80
7970;DHT22;4030;52.362;9.206;2023-09-08T00:04:32;24.00;57.80
7970;DHT22;4030;52.362;9.206;2023-09-08T00:07:01;24.00;57.90
7970;DHT22;4030;52.362;9.206;2023-09-08T00:09:27;24.00;57.90
7970;DHT22;4030;52.362;9.206;2023-09-08T00:11:52;24.00;58.00
7970;DHT22;4030;52.362;9.206;2023-09-08T00:14:20;24.00;58.00
7970;DHT22;4030;52.362;9.206;2023-09-08T00:16:45;23.90;57.90
7970;DHT22;4030;52.362;9.206;2023-09-08T00:19:11;23.90;58.10
7970;DHT22;4030;52.362;9.206;2023-09-08T00:21:37;23.80;58.00
7970;DHT22;4030;52.362;9.206;2023-09-08T00:24:04;23.80;57.90
7970;DHT22;4030;52.362;9.206;2023-09-08T00:26:30;23.80;58.00
7970;DHT22;4030;52.362;9.206;2023-09-08T00:28:57;23.80;58.10
7970;DHT22;4030;52.362;9.206;2023-09-08T00:31:23;23.80;58.10
7970;DHT22;4030;52.362;9.206;2023-09-08T00:33:48;23.70;58.10
7970;DHT22;4030;52.362;9.206;2023-09-08T00:36:14;23.70;58.30
7970;DHT22;4030;52.362;9.206;2023-09-08T00:38:40;23.70;58.40
7970;DHT22;4030;52.362;9.206;2023-09-08T00:41:06;23.70;58.50
7970;DHT22;4030;52.362;9.206;2023-09-08T00:43:33;23.70;58.50
7970;DHT22;4030;52.362;9.206;2023-09-08T00:45:59;23.50;58.40
7970;DHT22;4030;52.362;9.206;2023-09-08T00:48:26;23.60;58.60
7970;DHT22;4030;52.362;9.206;2023-09-08T00:50:52;23.60;58.70
7970;DHT22;4030;52.362;9.206;2023-09-08T00:53:18;23.60;58.70
7970;DHT22;4030;52.362;9.206;2023-09-08T00:55:45;23.50;58.70
7970;DHT22;4030;52.362;9.206;2023-09-08T00:58:11;23.50;58.80
7970;DHT22;4030;52.362;9.206;2023-09-08T01:00:37;23.40;58.80
7970;DHT22;4030;52.362;9.206;2023-09-08T01:03:03;23.40;58.90
7970;DHT22;4030;52.362;9.206;2023-09-08T01:05:29;23.40;59.10
7970;DHT22;4030;52.362;9.206;2023-09-08T01:07:56;23.40;59.10
7970;DHT22;4030;52.362;9.206;2023-09-08T01:10:22;23.40;59.10
7970;DHT22;4030;52.362;9.206;2023-09-08T01:12:48;23.40;59.20
7970;DHT22;4030;52.362;9.206;2023-09-08T01:15:14;23.30;59.20
7970;DHT22;4030;52.362;9.206;2023-09-08T01:17:40;23.30;59.30
7970;DHT22;4030;52.362;9.206;2023-09-08T01:20:17;23.30;59.40
7970;DHT22;4030;52.362;9.206;2023-09-08T01:25:57;23.20;59.40
7970;DHT22;4030;52.362;9.206;2023-09-08T01:28:30;23.10;59.50
7970;DHT22;4030;52.362;9.206;2023-09-08T01:30:56;23.20;59.70
7970;DHT22;4030;52.362;9.206;2023-09-08T01:33:22;23.10;59.60
7970;DHT22;4030;52.362;9.206;2023-09-08T01:35:49;23.10;59.70
7970;DHT22;4030;52.362;9.206;2023-09-08T01:38:15;23.10;59.70
7970;DHT22;4030;52.362;9.206;2023-09-08T01:40:41;23.10;59.80
7970;DHT22;4030;52.362;9.206;2023-09-08T01:43:07;23.00;59.90
7970;DHT22;4030;52.362;9.206;2023-09-08T01:45:32;23.00;59.90
7970;DHT22;4030;52.362;9.206;2023-09-08T01:47:58;23.00;60.00
7970;DHT22;4030;52.362;9.206;2023-09-08T01:50:24;23.00;60.10
7970;DHT22;4030;52.362;9.206;2023-09-08T01:52:50;22.90;60.10
7970;DHT22;4030;52.362;9.206;2023-09-08T01:55:16;22.90;60.20
7970;DHT22;4030;52.362;9.206;2023-09-08T01:57:43;22.90;60.40
7970;DHT22;4030;52.362;9.206;2023-09-08T02:00:10;22.90;60.40
7970;DHT22;4030;52.362;9.206;2023-09-08T02:02:36;22.90;60.50
7970;DHT22;4030;52.362;9.206;2023-09-08T02:05:02;22.80;60.50
7970;DHT22;4030;52.362;9.206;2023-09-08T02:07:28;22.80;60.60
7970;DHT22;4030;52.362;9.206;2023-09-08T02:09:54;22.80;60.70
7970;DHT22;4030;52.362;9.206;2023-09-08T02:12:21;22.80;60.70
7970;DHT22;4030;52.362;9.206;2023-09-08T02:14:46;22.80;60.80
7970;DHT22;4030;52.362;9.206;2023-09-08T02:17:12;22.80;60.80
7970;DHT22;4030;52.362;9.206;2023-09-08T02:19:38;22.70;60.80
7970;DHT22;4030;52.362;9.206;2023-09-08T02:22:04;22.70;60.80
7970;DHT22;4030;52.362;9.206;2023-09-08T02:24:29;22.70;60.80
7970;DHT22;4030;52.362;9.206;2023-09-08T02:26:55;22.70;61.00
7970;DHT22;4030;52.362;9.206;2023-09-08T02:29:21;22.60;61.00
7970;DHT22;4030;52.362;9.206;2023-09-08T02:31:48;22.60;61.10
7970;DHT22;4030;52.362;9.206;2023-09-08T02:34:14;22.60;61.10
7970;DHT22;4030;52.362;9.206;2023-09-08T02:36:39;22.60;61.20
7970;DHT22;4030;52.362;9.206;2023-09-08T02:39:05;22.50;61.10
7970;DHT22;4030;52.362;9.206;2023-09-08T02:41:32;22.50;61.20
7970;DHT22;4030;52.362;9.206;2023-09-08T02:43:58;22.50;61.30
7970;DHT22;4030;52.362;9.206;2023-09-08T02:46:23;22.40;61.30
7970;DHT22;4030;52.362;9.206;2023-09-08T02:48:49;22.50;61.50
7970;DHT22;4030;52.362;9.206;2023-09-08T02:51:15;22.40;61.50
7970;DHT22;4030;52.362;9.206;2023-09-08T02:53:41;22.40;61.50
7970;DHT22;4030;52.362;9.206;2023-09-08T02:56:06;22.40;61.60
7970;DHT22;4030;52.362;9.206;2023-09-08T02:58:32;22.40;61.80
7970;DHT22;4030;52.362;9.206;2023-09-08T03:01:16;22.40;61.90
7970;DHT22;4030;52.362;9.206;2023-09-08T03:03:45;22.30;61.90
7970;DHT22;4030;52.362;9.206;2023-09-08T03:06:13;22.30;62.00
7970;DHT22;4030;52.362;9.206;2023-09-08T03:08:39;22.30;62.10
7970;DHT22;4030;52.362;9.206;2023-09-08T03:11:05;22.30;62.20
7970;DHT22;4030;52.362;9.206;2023-09-08T03:13:32;22.20;62.20
7970;DHT22;4030;52.362;9.206;2023-09-08T03:16:05;22.20;62.40
7970;DHT22;4030;52.362;9.206;2023-09-08T03:18:36;22.20;62.40
7970;DHT22;4030;52.362;9.206;2023-09-08T03:21:02;22.20;62.50
7970;DHT22;4030;52.362;9.206;2023-09-08T03:23:38;22.20;62.50
7970;DHT22;4030;52.362;9.206;2023-09-08T03:26:04;22.10;62.50
7970;DHT22;4030;52.362;9.206;2023-09-08T03:28:31;22.10;62.60
7970;DHT22;4030;52.362;9.206;2023-09-08T03:30:57;22.10;62.60
7970;DHT22;4030;52.362;9.206;2023-09-08T03:33:23;22.10;62.70
7970;DHT22;4030;52.362;9.206;2023-09-08T03:35:49;22.00;62.70
7970;DHT22;4030;52.362;9.206;2023-09-08T03:38:14;22.10;62.80
7970;DHT22;4030;52.362;9.206;2023-09-08T03:40:40;22.10;62.90
7970;DHT22;4030;52.362;9.206;2023-09-08T03:43:06;22.00;62.90
7970;DHT22;4030;52.362;9.206;2023-09-08T03:45:32;22.00;63.10
7970;DHT22;4030;52.362;9.206;2023-09-08T03:47:57;21.90;63.00
7970;DHT22;4030;52.362;9.206;2023-09-08T03:50:23;21.90;63.10
7970;DHT22;4030;52.362;9.206;2023-09-08T03:52:50;21.90;63.20
7970;DHT22;4030;52.362;9.206;2023-09-08T03:55:15;21.90;64.10
7970;DHT22;4030;52.362;9.206;2023-09-08T03:57:42;21.90;63.40
7970;DHT22;4030;52.362;9.206;2023-09-08T04:00:08;21.90;63.40
7970;DHT22;4030;52.362;9.206;2023-09-08T04:02:37;21.80;63.40
7970;DHT22;4030;52.362;9.206;2023-09-08T04:05:03;21.80;63.50
7970;DHT22;4030;52.362;9.206;2023-09-08T04:07:29;21.80;63.70
7970;DHT22;4030;52.362;9.206;2023-09-08T04:09:54;21.70;63.60
7970;DHT22;4030;52.362;9.206;2023-09-08T04:12:20;21.80;63.80
7970;DHT22;4030;52.362;9.206;2023-09-08T04:14:46;21.70;63.70
7970;DHT22;4030;52.362;9.206;2023-09-08T04:17:11;21.70;63.90
7970;DHT22;4030;52.362;9.206;2023-09-08T04:19:37;21.70;63.90
7970;DHT22;4030;52.362;9.206;2023-09-08T04:22:03;21.70;64.00
7970;DHT22;4030;52.362;9.206;2023-09-08T04:24:29;21.70;64.00
7970;DHT22;4030;52.362;9.206;2023-09-08T04:26:54;21.60;63.90
7970;DHT22;4030;52.362;9.206;2023-09-08T04:29:20;21.60;64.00
7970;DHT22;4030;52.362;9.206;2023-09-08T04:31:46;21.60;64.10
7970;DHT22;4030;52.362;9.206;2023-09-08T04:34:11;21.60;64.10
7970;DHT22;4030;52.362;9.206;2023-09-08T04:36:37;21.60;64.10
7970;DHT22;4030;52.362;9.206;2023-09-08T04:39:03;21.50;65.00
7970;DHT22;4030;52.362;9.206;2023-09-08T04:41:28;21.60;64.20
7970;DHT22;4030;52.362;9.206;2023-09-08T04:43:54;21.50;64.20
7970;DHT22;4030;52.362;9.206;2023-09-08T04:46:20;21.50;64.20
7970;DHT22;4030;52.362;9.206;2023-09-08T04:48:46;21.50;64.20
7970;DHT22;4030;52.362;9.206;2023-09-08T04:51:12;21.50;64.30
7970;DHT22;4030;52.362;9.206;2023-09-08T04:53:37;21.50;64.20
7970;DHT22;4030;52.362;9.206;2023-09-08T04:56:03;21.50;64.30
7970;DHT22;4030;52.362;9.206;2023-09-08T04:58:29;21.50;64.30
7970;DHT22;4030;52.362;9.206;2023-09-08T05:00:55;21.50;64.30
7970;DHT22;4030;52.362;9.206;2023-09-08T05:03:21;21.50;64.30
7970;DHT22;4030;52.362;9.206;2023-09-08T05:05:46;21.40;64.30
7970;DHT22;4030;52.362;9.206;2023-09-08T05:08:12;21.40;64.30
7970;DHT22;4030;52.362;9.206;2023-09-08T05:10:38;21.40;64.30
7970;DHT22;4030;52.362;9.206;2023-09-08T05:13:03;21.40;64.30
7970;DHT22;4030;52.362;9.206;2023-09-08T05:15:29;21.40;64.30
7970;DHT22;4030;52.362;9.206;2023-09-08T05:17:56;21.40;64.30
7970;DHT22;4030;52.362;9.206;2023-09-08T05:20:22;21.50;64.40
7970;DHT22;4030;52.362;9.206;2023-09-08T05:22:47;21.40;64.30
7970;DHT22;4030;52.362;9.206;2023-09-08T05:25:13;21.50;64.40
7970;DHT22;4030;52.362;9.206;2023-09-08T05:27:39;21.50;64.50
7970;DHT22;4030;52.362;9.206;2023-09-08T05:30:05;21.50;64.50
7970;DHT22;4030;52.362;9.206;2023-09-08T05:32:32;21.50;64.50
7970;DHT22;4030;52.362;9.206;2023-09-08T05:34:57;21.40;64.40
7970;DHT22;4030;52.362;9.206;2023-09-08T05:37:23;21.50;65.40
7970;DHT22;4030;52.362;9.206;2023-09-08T05:39:49;21.50;64.50
7970;DHT22;4030;52.362;9.206;2023-09-08T05:42:14;21.50;64.60
7970;DHT22;4030;52.362;9.206;2023-09-08T05:44:40;21.50;64.60
7970;DHT22;4030;52.362;9.206;2023-09-08T05:47:06;21.50;64.60
7970;DHT22;4030;52.362;9.206;2023-09-08T05:49:31;21.60;64.70
7970;DHT22;4030;52.362;9.206;2023-09-08T05:51:57;21.60;64.60
7970;DHT22;4030;52.362;9.206;2023-09-08T05:54:23;21.60;64.70
7970;DHT22;4030;52.362;9.206;2023-09-08T05:56:48;21.60;64.70
7970;DHT22;4030;52.362;9.206;2023-09-08T05:59:14;21.60;65.20
7970;DHT22;4030;52.362;9.206;2023-09-08T06:01:40;21.60;67.80
7970;DHT22;4030;52.362;9.206;2023-09-08T06:04:06;21.60;69.70
7970;DHT22;4030;52.362;9.206;2023-09-08T06:06:32;21.60;70.90
7970;DHT22;4030;52.362;9.206;2023-09-08T06:08:57;21.60;71.70
7970;DHT22;4030;52.362;9.206;2023-09-08T06:11:23;21.60;71.40
7970;DHT22;4030;52.362;9.206;2023-09-08T06:13:49;21.60;71.60
7970;DHT22;4030;52.362;9.206;2023-09-08T06:16:14;21.60;71.80
7970;DHT22;4030;52.362;9.206;2023-09-08T06:18:40;21.60;72.20
7970;DHT22;4030;52.362;9.206;2023-09-08T06:21:06;21.60;72.50
7970;DHT22;4030;52.362;9.206;2023-09-08T06:23:33;21.50;72.50
7970;DHT22;4030;52.362;9.206;2023-09-08T06:26:00;21.60;72.80
7970;DHT22;4030;52.362;9.206;2023-09-08T06:28:27;21.60;73.00
7970;DHT22;4030;52.362;9.206;2023-09-08T06:30:53;21.60;73.40
7970;DHT22;4030;52.362;9.206;2023-09-08T06:33:19;21.50;73.60
7970;DHT22;4030;52.362;9.206;2023-09-08T06:35:47;23.90;76.30
7970;DHT22;4030;52.362;9.206;2023-09-08T06:38:12;21.70;74.10
7970;DHT22;4030;52.362;9.206;2023-09-08T06:40:38;21.80;74.30
7970;DHT22;4030;52.362;9.206;2023-09-08T06:43:04;21.80;74.40
7970;DHT22;4030;52.362;9.206;2023-09-08T06:45:30;21.90;74.60
7970;DHT22;4030;52.362;9.206;2023-09-08T06:47:56;21.90;74.00
7970;DHT22;4030;52.362;9.206;2023-09-08T06:50:22;22.00;73.90
7970;DHT22;4030;52.362;9.206;2023-09-08T06:52:51;22.10;73.80
7970;DHT22;4030;52.362;9.206;2023-09-08T06:55:17;22.20;73.90
7970;DHT22;4030;52.362;9.206;2023-09-08T06:57:44;22.30;73.90
7970;DHT22;4030;52.362;9.206;2023-09-08T07:00:11;22.30;73.60
7970;DHT22;4030;52.362;9.206;2023-09-08T07:02:38;22.40;73.90
7970;DHT22;4030;52.362;9.206;2023-09-08T07:05:04;22.50;74.40
7970;DHT22;4030;52.362;9.206;2023-09-08T07:07:37;22.50;74.30
7970;DHT22;4030;52.362;9.206;2023-09-08T07:10:04;22.60;74.20
7970;DHT22;4030;52.362;9.206;2023-09-08T07:12:30;22.60;74.10
7970;DHT22;4030;52.362;9.206;2023-09-08T07:14:56;22.70;74.00
7970;DHT22;4030;52.362;9.206;2023-09-08T07:17:22;24.60;75.70
7970;DHT22;4030;52.362;9.206;2023-09-08T07:19:49;22.90;73.60
7970;DHT22;4030;52.362;9.206;2023-09-08T07:22:15;23.00;73.20
7970;DHT22;4030;52.362;9.206;2023-09-08T07:24:41;23.20;72.70
7970;DHT22;4030;52.362;9.206;2023-09-08T07:27:07;23.30;72.30
7970;DHT22;4030;52.362;9.206;2023-09-08T07:29:33;23.40;72.10
7970;DHT22;4030;52.362;9.206;2023-09-08T07:31:59;23.50;71.80
7970;DHT22;4030;52.362;9.206;2023-09-08T07:34:25;23.60;71.30
7970;DHT22;4030;52.362;9.206;2023-09-08T07:36:50;23.70;71.00
7970;DHT22;4030;52.362;9.206;2023-09-08T07:39:16;23.80;70.70
7970;DHT22;4030;52.362;9.206;2023-09-08T07:41:42;23.90;70.30
7970;DHT22;4030;52.362;9.206;2023-09-08T07:44:08;24.00;70.20
7970;DHT22;4030;52.362;9.206;2023-09-08T07:46:33;24.20;70.10
7970;DHT22;4030;52.362;9.206;2023-09-08T07:48:59;24.20;69.70
7970;DHT22;4030;52.362;9.206;2023-09-08T07:51:26;24.40;69.60
7970;DHT22;4030;52.362;9.206;2023-09-08T07:53:55;24.50;69.60
7970;DHT22;4030;52.362;9.206;2023-09-08T07:56:21;24.60;69.40
7970;DHT22;4030;52.362;9.206;2023-09-08T07:58:47;24.80;69.30
7970;DHT22;4030;52.362;9.206;2023-09-08T08:01:13;24.90;69.00
7970;DHT22;4030;52.362;9.206;2023-09-08T08:03:40;25.00;68.70
7970;DHT22;4030;52.362;9.206;2023-09-08T08:06:06;25.10;68.40
7970;DHT22;4030;52.362;9.206;2023-09-08T08:08:32;25.30;68.10
7970;DHT22;4030;52.362;9.206;2023-09-08T08:10:58;25.40;67.80
7970;DHT22;4030;52.362;9.206;2023-09-08T08:13:24;25.50;67.60
7970;DHT22;4030;52.362;9.206;2023-09-08T08:15:50;25.60;67.40
7970;DHT22;4030;52.362;9.206;2023-09-08T08:18:16;25.80;67.20
7970;DHT22;4030;52.362;9.206;2023-09-08T08:20:42;25.90;67.00
7970;DHT22;4030;52.362;9.206;2023-09-08T08:23:08;26.00;66.60
7970;DHT22;4030;52.362;9.206;2023-09-08T08:25:34;26.20;66.40
7970;DHT22;4030;52.362;9.206;2023-09-08T08:27:59;26.30;66.00
7970;DHT22;4030;52.362;9.206;2023-09-08T08:30:26;26.40;65.60
7970;DHT22;4030;52.362;9.206;2023-09-08T08:32:52;26.50;65.20
7970;DHT22;4030;52.362;9.206;2023-09-08T08:35:19;26.60;65.00
7970;DHT22;4030;52.362;9.206;2023-09-08T08:37:45;26.80;65.00
7970;DHT22;4030;52.362;9.206;2023-09-08T08:40:11;26.90;64.70
7970;DHT22;4030;52.362;9.206;2023-09-08T08:42:38;27.10;64.40
7970;DHT22;4030;52.362;9.206;2023-09-08T08:45:05;27.20;64.20
7970;DHT22;4030;52.362;9.206;2023-09-08T08:47:31;27.40;63.90
7970;DHT22;4030;52.362;9.206;2023-09-08T08:49:58;27.50;63.30
7970;DHT22;4030;52.362;9.206;2023-09-08T08:52:28;27.70;63.00
7970;DHT22;4030;52.362;9.206;2023-09-08T08:54:54;27.90;62.30
7970;DHT22;4030;52.362;9.206;2023-09-08T08:57:21;28.00;62.20
7970;DHT22;4030;52.362;9.206;2023-09-08T08:59:49;28.30;62.10
7970;DHT22;4030;52.362;9.206;2023-09-08T09:02:17;28.40;61.60
7970;DHT22;4030;52.362;9.206;2023-09-08T09:04:44;28.60;61.30
7970;DHT22;4030;52.362;9.206;2023-09-08T09:07:11;28.70;60.80
7970;DHT22;4030;52.362;9.206;2023-09-08T09:09:37;28.80;60.00
7970;DHT22;4030;52.362;9.206;2023-09-08T09:12:05;29.00;59.70
7970;DHT22;4030;52.362;9.206;2023-09-08T09:14:34;29.10;59.10
7970;DHT22;4030;52.362;9.206;2023-09-08T09:17:01;29.20;58.70
7970;DHT22;4030;52.362;9.206;2023-09-08T09:19:30;29.40;58.20
7970;DHT22;4030;52.362;9.206;2023-09-08T09:21:57;29.50;58.00
7970;DHT22;4030;52.362;9.206;2023-09-08T09:24:36;29.60;57.80
7970;DHT22;4030;52.362;9.206;2023-09-08T09:27:07;29.80;57.70
7970;DHT22;4030;52.362;9.206;2023-09-08T09:29:33;30.00;57.40
7970;DHT22;4030;52.362;9.206;2023-09-08T09:32:05;30.10;56.80
7970;DHT22;4030;52.362;9.206;2023-09-08T09:34:34;30.20;56.50
7970;DHT22;4030;52.362;9.206;2023-09-08T09:37:00;30.30;56.10
7970;DHT22;4030;52.362;9.206;2023-09-08T09:39:26;30.40;55.90
7970;DHT22;4030;52.362;9.206;2023-09-08T09:41:56;30.60;55.80
7970;DHT22;4030;52.362;9.206;2023-09-08T09:44:23;30.80;55.40
7970;DHT22;4030;52.362;9.206;2023-09-08T09:46:53;30.90;55.30
7970;DHT22;4030;52.362;9.206;2023-09-08T09:49:19;31.10;54.80
7970;DHT22;4030;52.362;9.206;2023-09-08T09:51:47;31.30;54.50
7970;DHT22;4030;52.362;9.206;2023-09-08T09:54:14;31.40;53.90
7970;DHT22;4030;52.362;9.206;2023-09-08T09:56:41;31.50;53.50
7970;DHT22;4030;52.362;9.206;2023-09-08T09:59:11;31.60;54.20
7970;DHT22;4030;52.362;9.206;2023-09-08T10:01:41;31.80;53.20
7970;DHT22;4030;52.362;9.206;2023-09-08T10:04:08;31.90;52.90
7970;DHT22;4030;52.362;9.206;2023-09-08T10:06:39;32.10;52.80
7970;DHT22;4030;52.362;9.206;2023-09-08T10:09:06;32.20;51.70
7970;DHT22;4030;52.362;9.206;2023-09-08T10:11:48;32.40;51.60
7970;DHT22;4030;52.362;9.206;2023-09-08T10:14:15;32.50;51.30
7970;DHT22;4030;52.362;9.206;2023-09-08T10:16:44;32.70;50.90
7970;DHT22;4030;52.362;9.206;2023-09-08T10:19:15;32.80;50.20
7970;DHT22;4030;52.362;9.206;2023-09-08T10:21:48;33.00;49.70
7970;DHT22;4030;52.362;9.206;2023-09-08T10:24:24;33.10;49.60
7970;DHT22;4030;52.362;9.206;2023-09-08T10:29:35;33.30;48.20
7970;DHT22;4030;52.362;9.206;2023-09-08T10:32:01;33.40;48.00
7970;DHT22;4030;52.362;9.206;2023-09-08T10:34:28;33.50;47.80
7970;DHT22;4030;52.362;9.206;2023-09-08T10:36:54;33.70;47.90
7970;DHT22;4030;52.362;9.206;2023-09-08T10:39:36;33.80;47.70
7970;DHT22;4030;52.362;9.206;2023-09-08T10:44:56;34.10;47.40
7970;DHT22;4030;52.362;9.206;2023-09-08T10:47:30;34.30;46.80
7970;DHT22;4030;52.362;9.206;2023-09-08T10:50:20;34.40;46.80
7970;DHT22;4030;52.362;9.206;2023-09-08T10:53:10;34.50;46.50
7970;DHT22;4030;52.362;9.206;2023-09-08T11:01:13;35.00;45.40
7970;DHT22;4030;52.362;9.206;2023-09-08T11:06:07;35.30;45.40
7970;DHT22;4030;52.362;9.206;2023-09-08T11:08:43;35.30;44.70
7970;DHT22;4030;52.362;9.206;2023-09-08T11:11:14;35.40;44.30
7970;DHT22;4030;52.362;9.206;2023-09-08T11:13:41;35.50;43.30
7970;DHT22;4030;52.362;9.206;2023-09-08T11:16:07;35.50;42.90
7970;DHT22;4030;52.362;9.206;2023-09-08T11:18:34;35.40;42.70
7970;DHT22;4030;52.362;9.206;2023-09-08T11:21:01;35.40;42.30
7970;DHT22;4030;52.362;9.206;2023-09-08T11:23:28;35.30;42.10
7970;DHT22;4030;52.362;9.206;2023-09-08T11:25:54;35.30;42.30
7970;DHT22;4030;52.362;9.206;2023-09-08T11:28:24;35.40;42.20
7970;DHT22;4030;52.362;9.206;2023-09-08T11:30:50;35.40;42.00
7970;DHT22;4030;52.362;9.206;2023-09-08T11:33:17;35.40;41.90
7970;DHT22;4030;52.362;9.206;2023-09-08T11:35:47;35.50;41.50
7970;DHT22;4030;52.362;9.206;2023-09-08T11:38:13;35.50;41.60
7970;DHT22;4030;52.362;9.206;2023-09-08T11:40:39;35.60;41.30
7970;DHT22;4030;52.362;9.206;2023-09-08T11:43:06;35.60;41.30
7970;DHT22;4030;52.362;9.206;2023-09-08T11:45:34;35.70;41.30
7970;DHT22;4030;52.362;9.206;2023-09-08T11:48:01;35.80;41.40
7970;DHT22;4030;52.362;9.206;2023-09-08T11:50:27;35.80;41.40
7970;DHT22;4030;52.362;9.206;2023-09-08T11:52:53;35.80;40.90
7970;DHT22;4030;52.362;9.206;2023-09-08T11:55:21;35.80;40.80
7970;DHT22;4030;52.362;9.206;2023-09-08T11:57:49;35.90;40.70
7970;DHT22;4030;52.362;9.206;2023-09-08T12:00:19;36.00;40.40
7970;DHT22;4030;52.362;9.206;2023-09-08T12:02:48;36.00;40.00
7970;DHT22;4030;52.362;9.206;2023-09-08T12:07:48;36.20;39.60
7970;DHT22;4030;52.362;9.206;2023-09-08T12:10:15;36.20;39.30
7970;DHT22;4030;52.362;9.206;2023-09-08T12:12:42;36.30;38.60
7970;DHT22;4030;52.362;9.206;2023-09-08T12:15:40;36.30;38.40
7970;DHT22;4030;52.362;9.206;2023-09-08T12:18:09;36.30;39.10
7970;DHT22;4030;52.362;9.206;2023-09-08T12:20:37;36.30;38.80
7970;DHT22;4030;52.362;9.206;2023-09-08T12:23:05;36.30;39.00
7970;DHT22;4030;52.362;9.206;2023-09-08T12:25:47;36.40;38.40
7970;DHT22;4030;52.362;9.206;2023-09-08T12:28:17;36.40;38.30
7970;DHT22;4030;52.362;9.206;2023-09-08T12:30:44;36.50;37.60
7970;DHT22;4030;52.362;9.206;2023-09-08T12:33:09;36.40;37.30
7970;DHT22;4030;52.362;9.206;2023-09-08T12:35:36;36.50;37.50
7970;DHT22;4030;52.362;9.206;2023-09-08T12:38:04;36.60;37.70
7970;DHT22;4030;52.362;9.206;2023-09-08T12:40:36;36.70;37.60
7970;DHT22;4030;52.362;9.206;2023-09-08T12:43:04;36.70;36.90
7970;DHT22;4030;52.362;9.206;2023-09-08T12:45:31;36.70;36.30
7970;DHT22;4030;52.362;9.206;2023-09-08T12:48:01;36.80;36.40
7970;DHT22;4030;52.362;9.206;2023-09-08T12:50:29;36.90;36.00
7970;DHT22;4030;52.362;9.206;2023-09-08T12:52:55;37.00;35.10
7970;DHT22;4030;52.362;9.206;2023-09-08T12:55:22;37.00;35.10
7970;DHT22;4030;52.362;9.206;2023-09-08T12:57:48;37.00;36.10
7970;DHT22;4030;52.362;9.206;2023-09-08T13:00:15;37.10;35.40
7970;DHT22;4030;52.362;9.206;2023-09-08T13:02:41;37.10;35.20
7970;DHT22;4030;52.362;9.206;2023-09-08T13:05:09;37.10;35.10
7970;DHT22;4030;52.362;9.206;2023-09-08T13:07:34;37.20;35.40
7970;DHT22;4030;52.362;9.206;2023-09-08T13:10:00;37.30;35.40
7970;DHT22;4030;52.362;9.206;2023-09-08T13:12:26;37.30;35.00
7970;DHT22;4030;52.362;9.206;2023-09-08T13:14:52;37.40;34.90
7970;DHT22;4030;52.362;9.206;2023-09-08T13:17:18;37.50;35.00
7970;DHT22;4030;52.362;9.206;2023-09-08T13:19:47;37.60;34.80
7970;DHT22;4030;52.362;9.206;2023-09-08T13:22:13;37.60;34.10
7970;DHT22;4030;52.362;9.206;2023-09-08T13:24:39;37.60;34.20
7970;DHT22;4030;52.362;9.206;2023-09-08T13:27:05;37.70;34.30
7970;DHT22;4030;52.362;9.206;2023-09-08T13:29:31;37.70;34.10
7970;DHT22;4030;52.362;9.206;2023-09-08T13:31:56;37.80;34.00
7970;DHT22;4030;52.362;9.206;2023-09-08T13:34:23;37.90;33.30
7970;DHT22;4030;52.362;9.206;2023-09-08T13:36:49;38.00;33.40
7970;DHT22;4030;52.362;9.206;2023-09-08T13:39:14;38.10;33.00
7970;DHT22;4030;52.362;9.206;2023-09-08T13:41:47;38.20;33.30
7970;DHT22;4030;52.362;9.206;2023-09-08T13:44:13;38.20;32.40
7970;DHT22;4030;52.362;9.206;2023-09-08T13:46:39;38.30;33.10
7970;DHT22;4030;52.362;9.206;2023-09-08T13:49:04;38.30;33.20
7970;DHT22;4030;52.362;9.206;2023-09-08T13:51:31;38.40;33.60
7970;DHT22;4030;52.362;9.206;2023-09-08T13:53:57;38.50;33.80
7970;DHT22;4030;52.362;9.206;2023-09-08T13:56:23;38.60;32.80
7970;DHT22;4030;52.362;9.206;2023-09-08T13:58:49;38.80;32.20
7970;DHT22;4030;52.362;9.206;2023-09-08T14:01:15;39.30;31.50
7970;DHT22;4030;52.362;9.206;2023-09-08T14:03:40;40.00;30.10
7970;DHT22;4030;52.362;9.206;2023-09-08T14:06:06;40.90;29.20
7970;DHT22;4030;52.362;9.206;2023-09-08T14:08:32;41.80;28.10
7970;DHT22;4030;52.362;9.206;2023-09-08T14:10:58;42.70;27.70
7970;DHT22;4030;52.362;9.206;2023-09-08T14:13:23;43.60;27.10
7970;DHT22;4030;52.362;9.206;2023-09-08T14:15:49;44.40;26.50
7970;DHT22;4030;52.362;9.206;2023-09-08T14:18:15;45.00;26.00
7970;DHT22;4030;52.362;9.206;2023-09-08T14:20:41;45.50;25.30
7970;DHT22;4030;52.362;9.206;2023-09-08T14:23:07;45.70;24.70
7970;DHT22;4030;52.362;9.206;2023-09-08T14:25:34;45.50;24.90
7970;DHT22;4030;52.362;9.206;2023-09-08T14:28:00;45.10;24.70
7970;DHT22;4030;52.362;9.206;2023-09-08T14:30:29;44.50;25.50
7970;DHT22;4030;52.362;9.206;2023-09-08T14:32:55;43.70;26.50
7970;DHT22;4030;52.362;9.206;2023-09-08T14:35:21;43.00;26.50
7970;DHT22;4030;52.362;9.206;2023-09-08T14:37:47;42.60;26.50
7970;DHT22;4030;52.362;9.206;2023-09-08T14:40:14;42.00;27.10
7970;DHT22;4030;52.362;9.206;2023-09-08T14:42:40;41.50;27.60
7970;DHT22;4030;52.362;9.206;2023-09-08T14:45:06;41.00;28.50
7970;DHT22;4030;52.362;9.206;2023-09-08T14:47:32;40.70;29.00
7970;DHT22;4030;52.362;9.206;2023-09-08T14:49:58;40.30;29.10
7970;DHT22;4030;52.362;9.206;2023-09-08T14:52:23;39.90;29.60
7970;DHT22;4030;52.362;9.206;2023-09-08T14:54:49;39.50;29.50
7970;DHT22;4030;52.362;9.206;2023-09-08T14:57:15;39.10;30.20
7970;DHT22;4030;52.362;9.206;2023-09-08T14:59:40;38.70;31.20
7970;DHT22;4030;52.362;9.206;2023-09-08T15:02:07;38.40;31.90
7970;DHT22;4030;52.362;9.206;2023-09-08T15:04:33;38.10;32.10
7970;DHT22;4030;52.362;9.206;2023-09-08T15:06:59;37.70;32.90
7970;DHT22;4030;52.362;9.206;2023-09-08T15:09:25;37.50;33.40
7970;DHT22;4030;52.362;9.206;2023-09-08T15:11:50;37.30;33.80
7970;DHT22;4030;52.362;9.206;2023-09-08T15:14:16;37.00;33.80
7970;DHT22;4030;52.362;9.206;2023-09-08T15:16:42;36.80;34.00
7970;DHT22;4030;52.362;9.206;2023-09-08T15:19:08;36.60;34.10
7970;DHT22;4030;52.362;9.206;2023-09-08T15:21:35;36.40;34.30
7970;DHT22;4030;52.362;9.206;2023-09-08T15:24:01;36.20;34.50
7970;DHT22;4030;52.362;9.206;2023-09-08T15:26:29;36.00;34.70
7970;DHT22;4030;52.362;9.206;2023-09-08T15:28:55;35.90;34.70
7970;DHT22;4030;52.362;9.206;2023-09-08T15:31:21;35.80;34.90
7970;DHT22;4030;52.362;9.206;2023-09-08T15:33:47;35.60;35.30
7970;DHT22;4030;52.362;9.206;2023-09-08T15:36:13;35.50;35.00
7970;DHT22;4030;52.362;9.206;2023-09-08T15:38:38;35.30;35.00
7970;DHT22;4030;52.362;9.206;2023-09-08T15:43:37;35.10;36.20
7970;DHT22;4030;52.362;9.206;2023-09-08T15:46:04;35.00;36.40
7970;DHT22;4030;52.362;9.206;2023-09-08T15:48:30;34.90;36.70
7970;DHT22;4030;52.362;9.206;2023-09-08T15:50:56;34.80;36.80
7970;DHT22;4030;52.362;9.206;2023-09-08T15:53:21;34.70;37.00
7970;DHT22;4030;52.362;9.206;2023-09-08T15:55:47;34.60;37.20
7970;DHT22;4030;52.362;9.206;2023-09-08T15:58:13;34.50;37.60
7970;DHT22;4030;52.362;9.206;2023-09-08T16:00:38;34.30;38.40
7970;DHT22;4030;52.362;9.206;2023-09-08T16:03:04;34.30;38.00
7970;DHT22;4030;52.362;9.206;2023-09-08T16:05:30;34.20;38.30
7970;DHT22;4030;52.362;9.206;2023-09-08T16:07:56;34.00;38.10
7970;DHT22;4030;52.362;9.206;2023-09-08T16:10:21;34.00;38.90
7970;DHT22;4030;52.362;9.206;2023-09-08T16:12:47;33.80;39.00
7970;DHT22;4030;52.362;9.206;2023-09-08T16:15:14;33.70;39.30
7970;DHT22;4030;52.362;9.206;2023-09-08T16:17:40;33.60;39.50
7970;DHT22;4030;52.362;9.206;2023-09-08T16:20:07;33.50;39.70
7970;DHT22;4030;52.362;9.206;2023-09-08T16:22:33;33.40;40.40